Terminal Aerodrome Forecast
Issued by NWS

Home | Current Version | Previous Version | Text Only | Print | Product List | Glossary On
Versions: 1 2 3 4 5 6 7 8 9 10 11 12 13 14 15 16 17
832
FTUS43 KILX 261137
TAFBMI
TAF
KBMI 261137Z 2612/2712 19010KT P6SM BKN100
     FM261300 20013G19KT P6SM BKN100
     FM261700 21016G27KT P6SM BKN150
     FM262300 21011G19KT P6SM SCT150
     FM270300 21008KT P6SM SCT050 BKN250=

USA.gov is the U.S. government's official web portal to all federal, state and local government web resources and services.